Terminal Aerodrome Forecast
Issued by NWS

Home | Current Version | Previous Version | Text Only | Print | Product List | Glossary On
Versions: 1 2 3 4 5 6 7 8 9 10 11 12 13 14 15 16 17 18 19 20 21 22 23 24 25 26 27 28 29 30
981
FTUS44 KLIX 241341 AAG
TAFMCB
TAF AMD
KMCB 241341Z 2414/2512 28006KT 1/4SM +RA FG SCT004 OVC022
     FM241500 26006KT P6SM SCT015 OVC060
      TEMPO 2415/2419 4SM -TSRA BKN015CB BKN020 BKN045
     FM242100 26007KT P6SM -SHRA VCTS SCT045CB OVC090
     FM250000 00000KT P6SM SCT045 OVC100 PROB30 2500/2506 4SM -TSRA
      BKN045CB
     FM250600 VRB03KT P6SM SCT045 BKN080 PROB30 2506/2511 2SM -TSRA
      OVC007CB
     FM251100 VRB03KT 3SM BR BKN030=

USA.gov is the U.S. government's official web portal to all federal, state and local government web resources and services.